Terminal Aerodrome Forecast
Issued by NWS

Current Version | Previous Version | Graphics & Text | Print | Product List | Glossary On
Versions: 1 2 3 4 5 6 7 8 9 10 11 12 13 14 15 16 17
956
FTUS41 KRNK 192223 AAA
TAFLWB
TAF AMD
KLWB 192223Z 1922/2018 28008G16KT P6SM SCT045
     FM200100 30005KT P6SM SKC=

USA.gov is the U.S. government's official web portal to all federal, state and local government web resources and services.